Time;durP1;ratioP1;P1;durP2;ratioP2;P2;SDS_P1;SDS_P2;PMS_P1;PMS_P2;Temp;Humidity;BMP_temperature;BMP_pressure;BME280_temperature;BME280_humidity;BME280_pressure;Samples;Min_cycle;Max_cycle;Signal;HPM_P1;HPM_P2
2023/01/11 00:02:05;;;;;;;5.32;3.95;;;;;;;0.91;100.00;92778.53;5008585;28;20034;-40
2023/01/11 00:04:30;;;;;;;3.90;3.50;;;;;;;0.89;100.00;92783.03;5015365;28;20025;-40
2023/01/11 00:06:56;;;;;;;3.28;2.72;;;;;;;0.82;100.00;92789.00;5028468;28;20029;-40
2023/01/11 00:09:22;;;;;;;2.90;2.58;;;;;;;0.64;100.00;92779.44;5028811;28;20760;-40
2023/01/11 00:11:48;;;;;;;3.50;2.63;;;;;;;0.72;100.00;92786.56;5028298;28;20033;-40
2023/01/11 00:14:14;;;;;;;1.42;1.33;;;;;;;0.71;100.00;92785.06;5028395;28;20029;-40
2023/01/11 00:16:39;;;;;;;2.13;1.92;;;;;;;0.66;99.78;92785.09;5025372;28;20056;-40
2023/01/11 00:19:05;;;;;;;4.63;3.22;;;;;;;0.83;99.24;92785.03;5008804;28;20029;-40
2023/01/11 00:21:31;;;;;;;3.20;3.00;;;;;;;0.54;100.00;92786.41;5008822;28;20029;-40
2023/01/11 00:23:56;;;;;;;5.45;4.53;;;;;;;0.46;100.00;92782.72;5008321;28;20029;-40
2023/01/11 00:26:22;;;;;;;5.22;3.55;;;;;;;0.58;100.00;92784.91;5008329;28;20034;-40
2023/01/11 00:28:48;;;;;;;3.60;3.03;;;;;;;0.66;100.00;92796.72;5009043;28;20033;-40
2023/01/11 00:31:14;;;;;;;4.25;3.53;;;;;;;0.71;100.00;92795.22;5028454;28;20052;-40
2023/01/11 00:33:40;;;;;;;3.58;2.90;;;;;;;0.44;100.00;92782.47;5028173;28;20029;-40
2023/01/11 00:36:06;;;;;;;6.13;3.03;;;;;;;0.43;100.00;92783.72;5028075;28;20143;-40
2023/01/11 00:38:45;;;;;;;4.95;2.72;;;;;;;0.43;100.00;92787.19;5028105;28;20456;-40
2023/01/11 00:49:27;;;;;;;4.15;3.10;;;;;;;0.34;100.00;92803.00;5008385;28;20433;-40
2023/01/11 00:51:52;;;;;;;4.10;3.08;;;;;;;0.36;100.00;92808.69;5008709;28;20033;-40
2023/01/11 00:54:18;;;;;;;3.80;3.33;;;;;;;0.35;100.00;92799.03;5008032;28;20089;-40
2023/01/11 00:56:44;;;;;;;4.10;2.70;;;;;;;0.32;100.00;92800.06;5007451;28;20041;-40
2023/01/11 00:59:10;;;;;;;5.07;3.40;;;;;;;0.38;100.00;92817.06;5007817;28;20026;-40
2023/01/11 01:01:35;;;;;;;3.72;3.15;;;;;;;0.30;100.00;92819.56;5008506;28;20030;-40
2023/01/11 01:04:01;;;;;;;2.95;2.15;;;;;;;0.34;100.00;92813.88;5010708;28;20033;-40
2023/01/11 01:06:27;;;;;;;2.03;1.70;;;;;;;0.51;100.00;92811.84;5026500;28;20025;-40
2023/01/11 01:08:53;;;;;;;2.92;2.00;;;;;;;0.49;100.00;92801.47;5027779;28;20029;-40
2023/01/11 01:11:18;;;;;;;3.00;2.45;;;;;;;0.49;100.00;92809.63;5027969;28;20171;-40
2023/01/11 01:16:28;;;;;;;2.03;1.90;;;;;;;0.56;100.00;92808.38;5026228;28;20032;-40
2023/01/11 01:18:56;;;;;;;2.70;2.13;;;;;;;0.63;100.00;92821.41;5008016;28;20124;-40
2023/01/11 01:21:22;;;;;;;6.40;2.95;;;;;;;0.77;100.00;92823.84;5008147;28;20494;-40
2023/01/11 01:23:50;;;;;;;2.20;2.00;;;;;;;0.72;100.00;92821.13;5007773;28;20029;-40
2023/01/11 01:26:15;;;;;;;3.03;1.80;;;;;;;0.84;100.00;92825.28;5007965;28;20033;-40
2023/01/11 01:28:40;;;;;;;3.90;2.38;;;;;;;0.85;100.00;92824.03;5007681;28;20492;-40
2023/01/11 01:31:06;;;;;;;6.88;3.85;;;;;;;0.90;100.00;92819.81;5027059;28;20056;-40
2023/01/11 01:33:31;;;;;;;8.27;5.60;;;;;;;0.81;100.00;92815.41;5027907;28;20036;-40
2023/01/11 01:35:57;;;;;;;5.07;3.67;;;;;;;0.78;100.00;92825.31;5027112;28;20095;-40
2023/01/11 01:38:22;;;;;;;4.45;3.00;;;;;;;0.84;100.00;92822.56;5027417;28;20021;-40
2023/01/11 01:40:48;;;;;;;3.53;2.47;;;;;;;0.91;100.00;92822.03;5027369;28;20680;-40
2023/01/11 01:43:15;;;;;;;5.95;3.63;;;;;;;0.81;100.00;92818.13;5027506;28;20398;-40
2023/01/11 01:45:42;;;;;;;11.55;6.50;;;;;;;0.60;100.00;92822.44;5017587;28;20646;-40
2023/01/11 01:48:11;;;;;;;16.23;9.48;;;;;;;0.58;100.00;92816.75;5007587;28;20034;-40
2023/01/11 01:50:45;;;;;;;14.70;8.13;;;;;;;0.69;100.00;92817.44;5006257;28;20048;-40
2023/01/11 01:53:14;;;;;;;12.90;8.10;;;;;;;0.74;100.00;92815.94;5006310;28;20123;-40
2023/01/11 01:55:42;;;;;;;13.45;9.52;;;;;;;0.77;100.00;92817.66;5006087;28;20513;-40
2023/01/11 01:58:11;;;;;;;21.23;10.80;;;;;;;0.75;100.00;92815.44;4989823;28;20838;-40
2023/01/11 02:00:38;;;;;;;13.50;8.80;;;;;;;0.63;100.00;92813.25;5006103;28;20054;-40
2023/01/11 02:03:04;;;;;;;15.40;9.07;;;;;;;0.62;100.00;92809.84;5008048;28;20429;-40
2023/01/11 02:05:29;;;;;;;16.27;9.73;;;;;;;0.70;100.00;92818.94;5020580;28;20029;-40
2023/01/11 02:07:57;;;;;;;17.48;11.23;;;;;;;0.52;100.00;92814.03;5027198;28;20029;-40
2023/01/11 02:10:26;;;;;;;11.48;6.18;;;;;;;0.31;100.00;92798.56;5030399;28;20456;-40
2023/01/11 02:12:57;;;;;;;19.70;13.52;;;;;;;0.42;100.00;92817.53;5029744;28;20040;-40
2023/01/11 02:15:23;;;;;;;23.30;13.75;;;;;;;0.32;100.00;92821.78;5029706;28;20040;-40
2023/01/11 02:17:49;;;;;;;22.02;12.15;;;;;;;0.21;100.00;92833.41;5016945;28;20033;-40
2023/01/11 02:20:27;;;;;;;15.75;8.75;;;;;;;0.27;100.00;92834.13;5010755;28;20033;-40
2023/01/11 02:23:11;;;;;;;8.00;5.18;;;;;;;0.38;100.00;92830.63;5010921;28;20429;-40
2023/01/11 02:26:04;;;;;;;8.50;5.43;;;;;;;0.25;100.00;92833.16;5009780;28;20022;-40
2023/01/11 02:28:45;;;;;;;11.05;6.75;;;;;;;0.26;100.00;92821.78;5010782;28;20087;-40
2023/01/11 02:31:30;;;;;;;14.10;8.98;;;;;;;0.33;100.00;92845.72;4989919;28;20034;-40
2023/01/11 02:34:09;;;;;;;13.55;8.77;;;;;;;0.30;100.00;92849.44;4991377;28;20034;-40
2023/01/11 02:37:00;;;;;;;13.13;7.85;;;;;;;0.24;100.00;92851.41;4991170;28;20124;-40
2023/01/11 02:39:31;;;;;;;17.55;10.77;;;;;;;0.12;100.00;92849.22;4989884;28;20045;-40
2023/01/11 02:45:31;;;;;;;5.82;4.55;;;;;;;0.10;100.00;92846.25;4975846;28;20080;-40
2023/01/11 02:47:59;;;;;;;9.40;5.97;;;;;;;0.12;100.00;92860.06;5010743;28;20044;-40
2023/01/11 02:50:33;;;;;;;5.82;4.88;;;;;;;0.06;100.00;92862.06;5008645;28;20113;-40
2023/01/11 02:53:06;;;;;;;6.60;4.28;;;;;;;0.10;100.00;92854.41;5010467;28;20050;-40
2023/01/11 02:55:36;;;;;;;4.95;3.95;;;;;;;-0.10;100.00;92858.13;5009419;28;20065;-40
2023/01/11 02:58:05;;;;;;;6.85;5.30;;;;;;;-0.09;100.00;92854.91;5009144;28;20437;-40
2023/01/11 03:00:31;;;;;;;8.50;5.43;;;;;;;-0.25;100.00;92858.38;5008872;28;20486;-40
2023/01/11 03:03:09;;;;;;;5.70;4.93;;;;;;;-0.34;100.00;92863.28;5008685;28;20036;-40
2023/01/11 03:05:43;;;;;;;5.73;4.13;;;;;;;-0.37;100.00;92869.72;5025753;28;20080;-40
2023/01/11 03:08:24;;;;;;;6.18;4.85;;;;;;;-0.42;100.00;92860.34;5028739;28;20033;-40
2023/01/11 03:14:26;;;;;;;7.20;4.63;;;;;;;-0.48;100.00;92858.88;5006460;28;20520;-40
2023/01/11 03:17:00;;;;;;;13.02;7.30;;;;;;;-0.46;100.00;92859.09;5024037;28;20026;-41
2023/01/11 03:19:50;;;;;;;24.85;12.90;;;;;;;-0.53;100.00;92859.59;5009678;28;20030;-40
2023/01/11 03:22:25;;;;;;;22.40;11.15;;;;;;;-0.55;100.00;92860.09;5009763;28;20026;-40
2023/01/11 03:25:16;;;;;;;14.65;8.10;;;;;;;-0.54;100.00;92860.84;5009342;28;20026;-40
2023/01/11 03:27:52;;;;;;;4.53;3.15;;;;;;;-0.57;100.00;92849.00;5007794;28;20123;-40
2023/01/11 03:30:27;;;;;;;9.55;4.22;;;;;;;-0.50;100.00;92850.47;5020813;28;20068;-40
2023/01/11 03:33:09;;;;;;;17.35;9.30;;;;;;;-0.69;100.00;92849.47;5029113;28;20587;-40
2023/01/11 03:35:48;;;;;;;23.88;10.60;;;;;;;-0.90;100.00;92854.34;5027575;28;20057;-40
2023/01/11 03:38:19;;;;;;;14.85;8.07;;;;;;;-0.97;100.00;92854.81;5029489;28;20049;-40
2023/01/11 03:40:49;;;;;;;12.52;8.23;;;;;;;-0.89;100.00;92867.41;5027809;28;20029;-40
2023/01/11 03:43:17;;;;;;;10.98;6.55;;;;;;;-0.90;100.00;92868.66;5027621;28;20469;-41
2023/01/11 03:46:04;;;;;;;13.43;7.20;;;;;;;-0.96;100.00;92862.50;5017612;28;20080;-40
2023/01/11 03:48:32;;;;;;;16.83;9.63;;;;;;;-1.07;100.00;92869.84;5008386;28;20034;-39
2023/01/11 03:50:59;;;;;;;28.38;10.63;;;;;;;-1.06;100.00;92868.63;5009050;28;20037;-40
2023/01/11 03:53:25;;;;;;;20.02;9.98;;;;;;;-0.99;100.00;92881.66;5007792;28;20029;-40
2023/01/11 03:55:54;;;;;;;15.35;7.90;;;;;;;-0.90;100.00;92874.06;5007488;28;20092;-40
2023/01/11 03:58:20;;;;;;;12.80;6.97;;;;;;;-1.07;100.00;92870.59;5008092;28;20026;-40
2023/01/11 04:00:46;;;;;;;23.08;13.32;;;;;;;-1.08;100.00;92877.22;5008905;28;20030;-40
2023/01/11 04:03:13;;;;;;;21.38;11.35;;;;;;;-1.19;100.00;92877.16;5007545;28;20537;-40
2023/01/11 04:05:42;;;;;;;34.63;15.45;;;;;;;-1.06;100.00;92874.75;5024802;28;20584;-40
2023/01/11 04:08:09;;;;;;;33.13;16.65;;;;;;;-1.15;100.00;92880.38;5028218;28;20024;-40
2023/01/11 04:10:35;;;;;;;44.33;19.85;;;;;;;-1.36;100.00;92878.34;5028449;28;20139;-40
2023/01/11 04:13:00;;;;;;;40.92;19.30;;;;;;;-1.49;100.00;92880.75;5028344;28;20033;-40
2023/01/11 04:15:26;;;;;;;25.50;13.25;;;;;;;-1.56;100.00;92887.38;5028358;28;20022;-39
2023/01/11 04:17:51;;;;;;;19.67;10.93;;;;;;;-1.46;100.00;92896.00;5016110;28;20022;-40
2023/01/11 04:20:17;;;;;;;22.08;11.45;;;;;;;-1.45;100.00;92895.53;5008713;28;20030;-39
2023/01/11 04:22:42;;;;;;;22.33;9.07;;;;;;;-1.64;100.00;92903.31;5008827;28;20038;-40
2023/01/11 04:25:08;;;;;;;22.98;10.50;;;;;;;-1.68;100.00;92899.34;5008622;28;20410;-39
2023/01/11 04:27:34;;;;;;;20.38;10.60;;;;;;;-1.71;100.00;92903.75;5008907;28;20026;-40
2023/01/11 04:29:59;;;;;;;20.45;7.65;;;;;;;-1.76;100.00;92893.66;5018757;28;20239;-40
2023/01/11 04:32:25;;;;;;;18.25;8.82;;;;;;;-1.65;100.00;92907.25;5028015;28;20111;-40
2023/01/11 04:34:50;;;;;;;86.47;11.90;;;;;;;-1.54;100.00;92906.56;5027835;28;20496;-40
2023/01/11 04:37:15;;;;;;;56.28;12.20;;;;;;;-1.61;100.00;92907.75;5028152;28;20482;-39
2023/01/11 04:39:41;;;;;;;147.30;19.15;;;;;;;-1.75;100.00;92914.06;5028229;28;20021;-39
2023/01/11 04:42:18;;;;;;;66.35;17.65;;;;;;;-1.62;100.00;92919.81;5018421;28;20030;-40
2023/01/11 04:44:46;;;;;;;40.17;14.82;;;;;;;-1.67;100.00;92920.50;5007987;28;20096;-39
2023/01/11 04:47:12;;;;;;;24.02;9.40;;;;;;;-1.61;100.00;92928.66;5008132;28;20112;-40
2023/01/11 04:49:38;;;;;;;19.95;9.95;;;;;;;-1.66;100.00;92934.78;5008475;28;20112;-40
2023/01/11 04:52:03;;;;;;;26.75;9.77;;;;;;;-1.73;100.00;92927.84;5007868;28;20547;-40
2023/01/11 04:54:29;;;;;;;23.13;12.23;;;;;;;-1.67;100.00;92942.16;5007889;28;20109;-40
2023/01/11 04:56:54;;;;;;;19.17;8.55;;;;;;;-1.62;100.00;92938.00;5007999;28;20095;-39
2023/01/11 04:59:20;;;;;;;27.15;11.15;;;;;;;-1.59;100.00;92942.47;5008035;28;20030;-40
2023/01/11 05:01:45;;;;;;;47.88;10.23;;;;;;;-1.90;100.00;92935.13;5007887;28;20065;-40
2023/01/11 05:04:10;;;;;;;22.85;12.13;;;;;;;-1.87;100.00;92953.09;5011882;28;20565;-40
2023/01/11 05:06:36;;;;;;;28.00;13.27;;;;;;;-1.76;100.00;92955.91;5027785;28;20029;-40
2023/01/11 05:09:02;;;;;;;23.95;12.10;;;;;;;-1.72;100.00;92956.41;5027976;28;20033;-40
2023/01/11 05:11:27;;;;;;;15.50;7.97;;;;;;;-1.76;100.00;92939.66;5027111;28;20033;-40
2023/01/11 05:13:53;;;;;;;26.85;13.32;;;;;;;-1.42;100.00;92964.22;5027388;28;20140;-40
2023/01/11 05:16:22;;;;;;;19.83;10.63;;;;;;;-1.44;100.00;92961.25;5027674;28;20061;-40
2023/01/11 05:18:53;;;;;;;9.02;5.70;;;;;;;-1.61;100.00;92953.03;5007622;28;20119;-39
2023/01/11 05:21:20;;;;;;;22.33;14.07;;;;;;;-1.64;100.00;92968.25;5007729;28;20033;-40
2023/01/11 05:23:46;;;;;;;58.90;27.10;;;;;;;-1.68;100.00;92965.03;5007487;28;20521;-40
2023/01/11 05:26:14;;;;;;;79.95;37.15;;;;;;;-1.62;100.00;92973.94;5008060;28;20108;-40
2023/01/11 05:28:39;;;;;;;48.70;23.63;;;;;;;-1.59;100.00;92975.69;5007774;28;20033;-40
2023/01/11 05:31:05;;;;;;;23.42;12.30;;;;;;;-1.52;100.00;92975.22;5026296;28;20569;-40
2023/01/11 05:33:31;;;;;;;47.38;22.05;;;;;;;-1.43;100.00;92981.69;5027477;28;20116;-40
2023/01/11 05:36:04;;;;;;;33.88;16.70;;;;;;;-1.24;100.00;92977.38;5027116;28;20128;-40
2023/01/11 05:38:30;;;;;;;18.85;10.65;;;;;;;-1.11;100.00;92983.09;5016765;28;20048;-40
2023/01/11 05:41:01;;;;;;;13.65;7.75;;;;;;;-1.07;100.00;92992.47;5007390;28;20497;-40
2023/01/11 05:43:27;;;;;;;12.77;7.45;;;;;;;-1.02;100.00;92991.75;5008289;28;20513;-40
2023/01/11 05:45:53;;;;;;;25.08;14.73;;;;;;;-0.84;100.00;93001.44;5010798;28;20036;-40
2023/01/11 05:48:19;;;;;;;28.55;15.25;;;;;;;-0.84;100.00;92999.47;5011575;28;20026;-40
2023/01/11 05:50:57;;;;;;;31.48;16.45;;;;;;;-0.77;100.00;93003.69;5010984;28;20120;-40
2023/01/11 05:53:23;;;;;;;35.10;16.25;;;;;;;-0.70;100.00;93005.94;5011116;28;20040;-40
2023/01/11 05:55:52;;;;;;;32.20;16.80;;;;;;;-0.63;100.00;93005.50;5011275;28;20042;-40
2023/01/11 05:58:17;;;;;;;32.45;17.30;;;;;;;-0.85;100.00;93008.09;5010936;28;20021;-40
2023/01/11 06:00:47;;;;;;;52.38;26.88;;;;;;;-0.89;100.00;93010.31;5011182;28;20120;-39
2023/01/11 06:03:12;;;;;;;14.27;7.90;;;;;;;-0.99;100.00;93009.75;5010931;28;20028;-40
2023/01/11 06:05:38;;;;;;;19.20;10.90;;;;;;;-0.93;100.00;93015.94;5026790;28;20021;-40
2023/01/11 06:08:03;;;;;;;14.52;10.55;;;;;;;-0.93;100.00;93023.31;5030947;28;20555;-40
2023/01/11 06:10:29;;;;;;;19.38;10.70;;;;;;;-0.81;100.00;93028.31;5030742;28;20055;-40
2023/01/11 06:13:25;;;;;;;20.63;13.43;;;;;;;-0.86;100.00;93036.41;5030229;28;20033;-40
2023/01/11 06:15:39;;;;;;;14.68;9.95;;;;;;;-0.89;100.00;93040.13;5030423;28;20045;-40
2023/01/11 06:18:05;;;;;;;10.05;7.40;;;;;;;-0.75;100.00;93039.19;5015915;28;20084;-40
2023/01/11 06:20:30;;;;;;;10.63;7.65;;;;;;;-0.52;100.00;93040.75;5009316;28;20520;-40
2023/01/11 06:22:56;;;;;;;54.80;34.33;;;;;;;-0.48;100.00;93043.25;5010750;28;20478;-40
2023/01/11 06:25:21;;;;;;;37.25;22.70;;;;;;;-0.43;100.00;93043.25;5010428;28;20022;-40
2023/01/11 06:27:46;;;;;;;29.83;18.98;;;;;;;-0.37;100.00;93043.28;5010671;28;20045;-39
2023/01/11 06:30:12;;;;;;;23.35;13.32;;;;;;;-0.16;100.00;93055.44;5022658;28;20596;-40
2023/01/11 06:32:38;;;;;;;25.50;14.85;;;;;;;-0.13;100.00;93060.59;5030256;28;20462;-39
2023/01/11 06:35:03;;;;;;;21.88;14.77;;;;;;;-0.02;100.00;93052.50;5016935;28;20629;-40
2023/01/11 06:37:29;;;;;;;22.65;14.48;;;;;;;-0.16;100.00;93058.88;5010724;28;20048;-40
2023/01/11 06:39:54;;;;;;;41.70;18.38;;;;;;;-0.09;100.00;93055.69;5010572;28;20429;-40
2023/01/11 06:42:20;;;;;;;38.33;16.73;;;;;;;0.08;100.00;93063.88;5010242;28;20026;-40
2023/01/11 06:44:45;;;;;;;40.20;19.15;;;;;;;0.23;100.00;93063.66;5013731;28;20100;-40
2023/01/11 06:47:10;;;;;;;35.30;15.35;;;;;;;0.37;100.00;93066.13;5010282;28;20025;-40
2023/01/11 06:49:36;;;;;;;29.77;15.63;;;;;;;0.55;100.00;93067.63;5009806;28;20057;-40
2023/01/11 06:52:01;;;;;;;28.05;15.73;;;;;;;0.59;100.00;93079.72;5010066;28;20037;-40
2023/01/11 06:54:27;;;;;;;27.40;14.77;;;;;;;0.60;100.00;93088.63;5009414;28;20029;-40
2023/01/11 06:56:52;;;;;;;15.07;10.60;;;;;;;0.62;99.65;93086.91;5009205;28;20045;-40
2023/01/11 06:59:18;;;;;;;16.70;10.85;;;;;;;0.58;97.23;93082.94;5009994;28;20056;-40
2023/01/11 07:01:43;;;;;;;13.85;9.57;;;;;;;0.35;98.21;93090.31;5010240;28;20100;-40
2023/01/11 07:04:08;;;;;;;7.88;5.68;;;;;;;0.64;98.21;93091.84;5013477;28;20756;-40
2023/01/11 07:06:34;;;;;;;14.10;10.85;;;;;;;0.59;98.73;93100.72;5029804;28;20033;-40
2023/01/11 07:09:00;;;;;;;13.20;9.32;;;;;;;0.83;97.71;93100.22;5029669;28;20029;-40
2023/01/11 07:11:25;;;;;;;9.35;7.10;;;;;;;0.94;97.16;93097.50;5029678;28;20044;-40
2023/01/11 07:13:51;;;;;;;11.35;7.93;;;;;;;1.17;96.14;93091.53;5029405;28;20762;-40
2023/01/11 07:16:16;;;;;;;16.05;10.43;;;;;;;1.33;95.71;93093.50;5029673;28;20056;-40
2023/01/11 07:18:42;;;;;;;27.33;14.20;;;;;;;1.39;95.35;93096.19;5009849;28;20043;-40
2023/01/11 07:21:07;;;;;;;25.17;14.48;;;;;;;1.38;94.26;93095.47;5009760;28;20053;-40
2023/01/11 07:23:33;;;;;;;23.17;14.82;;;;;;;1.39;93.56;93098.91;5009393;28;20036;-40
2023/01/11 07:25:58;;;;;;;21.08;13.85;;;;;;;1.53;92.45;93095.94;5009302;28;20033;-40
2023/01/11 07:28:27;;;;;;;16.58;11.73;;;;;;;1.65;92.13;93099.34;5010207;28;20068;-40
2023/01/11 07:30:52;;;;;;;7.78;6.90;;;;;;;1.51;92.50;93095.69;5017696;28;20134;-40
2023/01/11 07:33:18;;;;;;;7.80;5.22;;;;;;;1.74;92.29;93106.50;5009501;28;20513;-40
2023/01/11 07:35:43;;;;;;;6.95;5.80;;;;;;;1.89;91.23;93106.94;5009364;28;20049;-40
2023/01/11 07:38:10;;;;;;;4.50;3.80;;;;;;;1.88;90.59;93114.38;5009155;28;20034;-40
2023/01/11 07:40:36;;;;;;;4.82;4.03;;;;;;;2.00;90.75;93106.88;5009430;28;20049;-40
2023/01/11 07:43:10;;;;;;;4.85;4.07;;;;;;;1.98;89.08;93120.25;5009597;28;20026;-40
2023/01/11 07:45:37;;;;;;;8.32;4.13;;;;;;;1.94;90.10;93125.22;5009198;28;20037;-40
2023/01/11 07:48:04;;;;;;;4.53;3.50;;;;;;;2.13;89.36;93126.13;5009418;28;20057;-40
2023/01/11 07:50:30;;;;;;;6.78;5.38;;;;;;;2.00;88.76;93134.09;5009541;28;20084;-40
2023/01/11 07:52:55;;;;;;;31.15;13.98;;;;;;;2.08;90.07;93124.19;5009178;28;20791;-40
2023/01/11 07:55:21;;;;;;;15.63;8.43;;;;;;;2.47;87.51;93138.34;5009345;28;20061;-40
2023/01/11 07:57:46;;;;;;;4.72;3.63;;;;;;;2.44;87.67;93149.50;5009128;28;20037;-40
2023/01/11 08:00:13;;;;;;;4.82;3.60;;;;;;;2.72;85.87;93155.53;5008899;28;20037;-40
2023/01/11 08:02:38;;;;;;;3.85;3.35;;;;;;;2.43;84.81;93165.13;5009555;28;20029;-40
2023/01/11 08:05:04;;;;;;;5.50;3.58;;;;;;;2.46;84.87;93174.28;5020271;28;20500;-40
2023/01/11 08:07:29;;;;;;;3.72;2.78;;;;;;;2.06;85.31;93165.53;5028559;28;20724;-40
2023/01/11 08:09:55;;;;;;;5.63;4.22;;;;;;;2.10;86.66;93168.00;5029013;28;20525;-40
2023/01/11 08:15:05;;;;;;;7.80;4.90;;;;;;;1.85;87.88;93182.66;5028317;28;20091;-40
2023/01/11 08:17:32;;;;;;;29.10;13.23;;;;;;;1.65;88.98;93189.13;5018966;28;20413;-40
2023/01/11 08:19:58;;;;;;;182.75;80.18;;;;;;;1.44;89.65;93190.66;5008410;28;20515;-40
2023/01/11 08:22:23;;;;;;;85.95;42.53;;;;;;;1.44;90.60;93185.97;5009013;28;20029;-40
2023/01/11 08:24:49;;;;;;;48.78;26.55;;;;;;;1.73;90.74;93192.84;5008897;28;20053;-40
2023/01/11 08:27:15;;;;;;;16.02;10.77;;;;;;;1.78;90.81;93194.81;5008337;28;20587;-40
2023/01/11 08:29:43;;;;;;;14.27;8.43;;;;;;;1.70;90.56;93198.53;5016054;28;20519;-40
2023/01/11 08:32:09;;;;;;;8.07;5.10;;;;;;;1.60;90.10;93206.22;5027019;28;20033;-40
2023/01/11 08:34:34;;;;;;;8.18;6.00;;;;;;;1.59;90.95;93202.00;5027661;28;20053;-40
2023/01/11 08:37:00;;;;;;;6.18;4.60;;;;;;;1.92;90.94;93201.97;5028267;28;20485;-40
2023/01/11 08:39:29;;;;;;;6.65;3.92;;;;;;;2.14;90.08;93207.31;5028002;28;20108;-40
2023/01/11 08:41:58;;;;;;;5.15;4.32;;;;;;;2.16;87.58;93217.75;5027969;28;20111;-40
2023/01/11 08:44:23;;;;;;;5.88;4.88;;;;;;;2.23;88.37;93223.38;5028354;28;20441;-40
2023/01/11 08:46:49;;;;;;;4.88;4.45;;;;;;;2.64;87.55;93220.03;5008684;28;20022;-40
2023/01/11 08:49:14;;;;;;;5.32;4.40;;;;;;;2.70;84.29;93220.72;5008170;28;20048;-40
2023/01/11 08:51:41;;;;;;;4.57;3.33;;;;;;;2.49;85.04;93220.31;5008691;28;20033;-40
2023/01/11 08:54:10;;;;;;;6.03;4.50;;;;;;;2.45;85.68;93224.56;5008006;28;20034;-40
2023/01/11 08:56:36;;;;;;;5.32;4.38;;;;;;;2.63;84.75;93218.53;5007889;28;20082;-40
2023/01/11 08:59:02;;;;;;;4.28;3.83;;;;;;;3.10;81.97;93222.72;5007998;28;20135;-40
2023/01/11 09:01:28;;;;;;;4.45;3.55;;;;;;;3.40;79.37;93231.69;5007995;28;20072;-40
2023/01/11 09:03:53;;;;;;;4.97;4.03;;;;;;;3.62;78.95;93228.03;5007983;28;20460;-40
2023/01/11 09:06:19;;;;;;;6.75;5.05;;;;;;;3.68;80.04;93223.28;5008003;28;20029;-40
2023/01/11 09:08:46;;;;;;;4.15;3.10;;;;;;;3.78;79.14;93229.88;5007712;28;20029;-40
2023/01/11 09:13:56;;;;;;;3.53;2.72;;;;;;;4.36;74.55;93236.50;5007968;28;20104;-40
2023/01/11 09:16:21;;;;;;;4.55;2.67;;;;;;;5.36;73.04;93235.22;5007898;28;20037;-40
2023/01/11 09:18:47;;;;;;;4.40;3.35;;;;;;;6.21;69.57;93234.13;5007437;28;20030;-40
2023/01/11 09:21:12;;;;;;;3.22;2.92;;;;;;;6.83;65.67;93229.69;5007744;28;20032;-40
2023/01/11 09:23:38;;;;;;;3.80;2.97;;;;;;;8.05;62.43;93223.44;5007593;28;20041;-40
2023/01/11 09:26:03;;;;;;;4.20;2.55;;;;;;;8.55;59.75;93224.94;5007850;28;20041;-40
2023/01/11 09:28:30;;;;;;;6.00;3.28;;;;;;;8.30;57.72;93225.31;5007502;28;20040;-40
2023/01/11 09:30:55;;;;;;;3.85;3.45;;;;;;;7.58;60.58;93224.28;5025185;28;20049;-40
2023/01/11 09:33:21;;;;;;;3.17;2.78;;;;;;;8.10;59.69;93222.56;5027381;28;20163;-40
2023/01/11 09:35:48;;;;;;;4.72;3.45;;;;;;;7.19;62.44;93224.44;5026900;28;20098;-40
2023/01/11 09:38:13;;;;;;;18.50;11.45;;;;;;;7.00;63.91;93223.84;5027492;28;20025;-40
2023/01/11 09:40:51;;;;;;;20.90;11.95;;;;;;;6.29;66.30;93229.47;5026975;28;20389;-40
2023/01/11 09:43:20;;;;;;;10.32;7.70;;;;;;;5.50;69.15;93228.53;5027405;28;20029;-40
2023/01/11 09:45:49;;;;;;;10.52;5.70;;;;;;;5.87;67.14;93228.47;5015496;28;20025;-40
2023/01/11 09:48:27;;;;;;;;;;;;;;;5.28;67.89;93221.38;5006648;28;20116;-40
2023/01/11 09:50:54;;;;;;;4.10;3.70;;;;;;;5.57;68.49;93227.94;5005941;28;20597;-40
2023/01/11 09:53:33;;;;;;;5.47;4.13;;;;;;;5.88;68.38;93231.94;5006258;28;20025;-41
2023/01/11 09:56:02;;;;;;;6.18;4.20;;;;;;;6.07;67.21;93232.63;5006104;28;20076;-41
2023/01/11 09:58:47;;;;;;;11.63;7.80;;;;;;;6.27;66.64;93220.31;5006238;28;20084;-41
2023/01/11 10:01:19;;;;;;;3.45;2.70;;;;;;;5.48;68.57;93224.84;5007645;28;20033;-40
2023/01/11 10:03:57;;;;;;;11.43;6.95;;;;;;;6.15;68.30;93221.78;5007465;28;20029;-40
2023/01/11 10:06:49;;;;;;;5.32;3.55;;;;;;;6.10;67.96;93226.09;5026977;28;20036;-41
2023/01/11 10:09:33;;;;;;;5.22;4.25;;;;;;;6.26;67.89;93229.81;5025724;28;20448;-40
2023/01/11 10:12:12;;;;;;;4.85;4.35;;;;;;;6.29;66.50;93218.50;5025716;28;20033;-40
2023/01/11 10:15:14;;;;;;;4.68;3.75;;;;;;;6.18;67.00;93212.50;5026876;28;20032;-41
2023/01/11 10:18:04;;;;;;;4.00;3.50;;;;;;;5.75;68.36;93215.44;4983022;28;20087;-40
2023/01/11 10:20:37;;;;;;;6.57;5.07;;;;;;;5.29;70.35;93214.66;5007077;28;20116;-40
2023/01/11 10:23:23;;;;;;;6.07;4.65;;;;;;;4.59;71.99;93220.59;5005760;28;20584;-40
2023/01/11 10:25:55;;;;;;;4.07;3.40;;;;;;;3.99;74.11;93217.28;5007114;28;20026;-40
2023/01/11 10:28:41;;;;;;;4.43;3.80;;;;;;;4.36;74.47;93224.81;5007197;28;20413;-40
2023/01/11 10:32:05;;;;;;;7.15;5.47;;;;;;;4.42;74.78;93223.50;5029464;28;20033;-40
2023/01/11 10:34:41;;;;;;;7.00;4.88;;;;;;;4.28;76.06;93230.16;5025823;28;20143;-40
2023/01/11 10:40:18;;;;;;;8.98;4.45;;;;;;;4.30;77.81;93233.09;5029279;28;20083;-40
2023/01/11 10:43:02;;;;;;;5.53;3.30;;;;;;;4.20;76.06;93229.22;5029130;28;20656;-40
2023/01/11 10:45:42;;;;;;;5.68;3.20;;;;;;;3.74;77.92;93237.63;5020387;28;20525;-40
2023/01/11 10:48:22;;;;;;;6.03;4.28;;;;;;;3.66;77.85;93226.50;5010477;28;20034;-40
2023/01/11 10:50:57;;;;;;;8.68;5.47;;;;;;;3.84;78.62;93233.31;5008876;28;20030;-40
2023/01/11 10:53:27;;;;;;;4.03;3.45;;;;;;;3.75;76.80;93228.16;5008890;28;20033;-40
2023/01/11 10:55:58;;;;;;;6.18;4.60;;;;;;;3.69;76.99;93232.94;5010064;28;20025;-40
2023/01/11 10:58:38;;;;;;;37.63;19.13;;;;;;;3.49;79.28;93236.06;5009952;28;20048;-40
2023/01/11 11:01:27;;;;;;;60.75;30.63;;;;;;;3.72;80.09;93235.41;5009849;28;20046;-40
2023/01/11 11:04:07;;;;;;;26.88;14.15;;;;;;;3.67;78.64;93232.72;5011770;28;20033;-40
2023/01/11 11:07:04;;;;;;;14.07;7.30;;;;;;;3.93;78.10;93237.69;5029593;28;20059;-40
2023/01/11 11:10:07;;;;;;;30.20;16.27;;;;;;;4.35;78.05;93242.50;5028277;28;20417;-40
2023/01/11 11:12:38;;;;;;;50.97;22.35;;;;;;;4.49;78.25;93238.59;5007010;28;20044;-40
2023/01/11 11:15:28;;;;;;;10.63;5.60;;;;;;;4.58;78.80;93230.03;5028363;28;20025;-40
2023/01/11 11:17:53;;;;;;;5.05;3.60;;;;;;;4.77;77.66;93235.53;5016898;28;20033;-40
2023/01/11 11:20:25;;;;;;;5.40;4.85;;;;;;;4.65;75.82;93236.94;5007949;28;20575;-40
2023/01/11 11:22:52;;;;;;;4.47;3.88;;;;;;;4.73;76.17;93235.09;5008215;28;20049;-40
2023/01/11 11:25:26;;;;;;;3.90;3.58;;;;;;;4.93;76.19;93232.59;5008537;28;20033;-40
2023/01/11 11:27:57;;;;;;;3.70;3.15;;;;;;;4.80;76.89;93226.31;5008258;28;20022;-40
2023/01/11 11:30:37;;;;;;;3.50;2.75;;;;;;;5.47;75.81;93228.84;5021982;28;20037;-40
2023/01/11 11:33:22;;;;;;;4.28;3.85;;;;;;;5.70;72.04;93213.53;5029317;28;20037;-40
2023/01/11 11:36:01;;;;;;;4.90;4.50;;;;;;;6.43;70.92;93224.75;5028756;28;20054;-40
2023/01/11 11:38:31;;;;;;;3.45;3.10;;;;;;;6.30;70.33;93222.00;5029301;28;20032;-40
2023/01/11 11:40:58;;;;;;;4.20;3.13;;;;;;;6.14;69.94;93223.78;5028002;28;20148;-41
2023/01/11 11:43:25;;;;;;;4.60;4.10;;;;;;;5.97;70.96;93215.13;5029261;28;20048;-41
2023/01/11 11:45:55;;;;;;;3.47;3.10;;;;;;;5.73;74.25;93213.25;5017506;28;20026;-41
2023/01/11 11:48:22;;;;;;;4.70;3.00;;;;;;;5.10;76.72;93202.25;5009084;28;20030;-41
2023/01/11 11:50:48;;;;;;;3.42;3.00;;;;;;;5.18;74.78;93219.56;5007906;28;20151;-40
2023/01/11 11:53:26;;;;;;;3.95;3.55;;;;;;;4.79;78.01;93211.88;5007443;28;20679;-40
2023/01/11 11:55:52;;;;;;;3.75;3.38;;;;;;;4.70;79.61;93219.72;5007810;28;20034;-41
2023/01/11 11:58:20;;;;;;;7.70;5.55;;;;;;;4.77;78.41;93217.13;5007600;28;20032;-40
2023/01/11 12:00:49;;;;;;;5.45;4.43;;;;;;;4.57;78.54;93217.63;5008764;28;20054;-41
2023/01/11 12:03:18;;;;;;;8.70;4.03;;;;;;;4.57;79.61;93220.34;5007557;28;20037;-41
2023/01/11 12:05:51;;;;;;;5.60;4.32;;;;;;;4.85;78.92;93211.81;5024370;28;20025;-41